createdAt,value
2023-02-08T00:00:11.381Z,108.50
2023-02-08T00:01:14.752Z,109.65
2023-02-08T00:02:17.635Z,107.80
2023-02-08T00:03:19.748Z,107.88
2023-02-08T00:04:22.990Z,90.97
2023-02-08T00:05:24.846Z,92.38
2023-02-08T00:06:28.096Z,87.68
2023-02-08T00:07:30.068Z,88.13
2023-02-08T00:08:33.018Z,91.75
2023-02-08T00:09:34.861Z,87.18
2023-02-08T00:10:37.726Z,84.45
2023-02-08T00:11:39.591Z,89.05
2023-02-08T00:12:44.308Z,86.80
2023-02-08T00:13:46.127Z,90.45
2023-02-08T00:14:48.975Z,84.15
2023-02-08T00:15:52.996Z,88.35
2023-02-08T00:16:55.757Z,81.07
2023-02-08T00:17:57.688Z,96.13
2023-02-08T00:19:00.585Z,90.72
2023-02-08T00:20:02.450Z,83.13
2023-02-08T00:21:09.629Z,88.32
2023-02-08T00:22:11.489Z,87.50
2023-02-08T00:23:14.733Z,87.60
2023-02-08T00:24:17.665Z,91.00
2023-02-08T00:25:19.773Z,87.20
2023-02-08T00:26:23.273Z,91.78
2023-02-08T00:27:25.443Z,85.80
2023-02-08T00:28:29.920Z,92.15
2023-02-08T00:29:31.765Z,85.78
2023-02-08T00:30:35.729Z,87.43
2023-02-08T00:31:37.803Z,86.97
2023-02-08T00:32:40.703Z,89.80
2023-02-08T00:33:42.561Z,94.43
2023-02-08T00:34:45.974Z,90.80
2023-02-08T00:35:48.002Z,94.05
2023-02-08T00:36:50.913Z,87.82
2023-02-08T00:37:53.324Z,92.50
2023-02-08T00:38:56.183Z,95.25
2023-02-08T00:39:59.997Z,90.00
2023-02-08T00:41:02.908Z,94.25
2023-02-08T00:42:04.812Z,93.68
2023-02-08T00:43:08.806Z,92.90
2023-02-08T00:44:13.116Z,94.38
2023-02-08T00:45:15.003Z,90.20
2023-02-08T00:46:18.060Z,98.25
2023-02-08T00:47:20.168Z,96.95
2023-02-08T00:48:23.325Z,103.55
2023-02-08T00:49:25.256Z,90.70
2023-02-08T00:50:28.209Z,96.35
2023-02-08T00:51:31.741Z,96.32
2023-02-08T00:52:34.648Z,86.05
2023-02-08T00:53:37.519Z,93.65
2023-02-08T00:54:41.923Z,98.10
2023-02-08T00:55:51.007Z,96.15
2023-02-08T00:56:54.127Z,95.07
2023-02-08T00:57:56.034Z,91.05
2023-02-08T00:58:58.925Z,89.03
2023-02-08T01:00:02.543Z,98.57
2023-02-08T01:01:06.834Z,88.22
2023-02-08T01:02:08.698Z,93.35
2023-02-08T01:03:12.096Z,94.28
2023-02-08T01:04:14.084Z,97.57
2023-02-08T01:05:17.084Z,103.80
2023-02-08T01:06:19.004Z,103.28
2023-02-08T01:07:21.938Z,114.60
2023-02-08T01:08:23.919Z,102.57
2023-02-08T01:09:27.283Z,104.07
2023-02-08T01:10:29.108Z,106.38
2023-02-08T01:11:33.287Z,98.35
2023-02-08T01:12:35.427Z,92.43
2023-02-08T01:13:39.099Z,95.07
2023-02-08T01:14:43.925Z,93.63
2023-02-08T01:15:48.251Z,79.90
2023-02-08T01:16:50.060Z,89.40
2023-02-08T01:17:54.699Z,93.22
2023-02-08T01:18:58.190Z,88.78
2023-02-08T01:20:01.160Z,79.35
2023-02-08T01:21:07.400Z,79.00
2023-02-08T01:22:29.972Z,69.10
2023-02-08T01:23:32.008Z,78.88
2023-02-08T01:24:35.198Z,80.07
2023-02-08T01:25:37.280Z,74.78
2023-02-08T01:26:41.112Z,77.38
2023-02-08T01:27:43.438Z,74.28
2023-02-08T01:28:46.561Z,72.32
2023-02-08T01:30:09.483Z,71.47
2023-02-08T01:31:14.937Z,71.90
2023-02-08T01:32:17.799Z,71.13
2023-02-08T01:33:19.601Z,71.18
2023-02-08T01:34:22.754Z,74.15
2023-02-08T01:35:24.565Z,69.63
2023-02-08T01:36:28.129Z,73.28
2023-02-08T01:37:30.081Z,71.55
2023-02-08T01:38:32.982Z,74.65
2023-02-08T01:39:35.071Z,77.25
2023-02-08T01:40:38.522Z,71.18
2023-02-08T01:41:44.304Z,71.95
2023-02-08T01:42:47.137Z,66.90
2023-02-08T01:44:29.398Z,64.93
2023-02-08T01:45:33.328Z,67.78
2023-02-08T01:46:39.480Z,68.18
2023-02-08T01:47:42.561Z,63.13
2023-02-08T01:48:45.596Z,62.85
2023-02-08T01:49:47.535Z,72.75
2023-02-08T01:50:54.076Z,85.47
2023-02-08T01:52:00.122Z,76.25
2023-02-08T01:53:03.399Z,81.85
2023-02-08T01:54:07.558Z,79.45
2023-02-08T01:55:14.197Z,69.55
2023-02-08T01:56:22.995Z,68.70
2023-02-08T01:57:26.760Z,69.00
2023-02-08T01:58:29.895Z,73.47
2023-02-08T01:59:36.535Z,59.13
2023-02-08T02:00:38.563Z,62.47
2023-02-08T02:01:43.391Z,58.55
2023-02-08T02:02:47.847Z,56.95
2023-02-08T02:03:50.786Z,48.97
2023-02-08T02:04:53.097Z,45.20
2023-02-08T02:06:17.767Z,45.08
2023-02-08T02:07:21.698Z,47.88
2023-02-08T02:08:24.956Z,45.53
2023-02-08T02:09:31.909Z,46.88
2023-02-08T02:10:38.314Z,46.47
2023-02-08T02:11:40.514Z,43.92
2023-02-08T02:12:43.992Z,48.03
2023-02-08T02:13:46.663Z,48.20
2023-02-08T02:14:50.768Z,42.13
2023-02-08T02:15:52.981Z,46.35
2023-02-08T02:16:57.198Z,42.03
2023-02-08T02:17:59.033Z,46.45
2023-02-08T02:19:02.261Z,49.90
2023-02-08T02:20:09.293Z,53.20
2023-02-08T02:21:28.102Z,56.00
2023-02-08T02:23:13.199Z,51.05
2023-02-08T02:24:39.466Z,49.92
2023-02-08T02:26:03.981Z,44.83
2023-02-08T02:27:23.860Z,47.60
2023-02-08T02:28:54.294Z,47.10
2023-02-08T02:30:25.700Z,45.25
2023-02-08T02:31:43.045Z,48.50
2023-02-08T02:32:55.957Z,52.03
2023-02-08T02:34:03.689Z,50.40
2023-02-08T02:35:09.395Z,49.33
2023-02-08T02:36:19.605Z,52.30
2023-02-08T02:37:30.658Z,48.65
2023-02-08T02:38:42.377Z,50.15
2023-02-08T02:39:51.198Z,51.05
2023-02-08T02:41:00.991Z,50.72
2023-02-08T02:42:43.781Z,51.78
2023-02-08T02:43:48.220Z,47.90
2023-02-08T02:44:55.261Z,53.75
2023-02-08T02:46:07.140Z,49.05
2023-02-08T02:47:13.063Z,49.22
2023-02-08T02:48:18.592Z,52.42
2023-02-08T02:49:25.124Z,47.88
2023-02-08T02:50:32.120Z,48.90
2023-02-08T02:51:39.091Z,49.10
2023-02-08T02:52:46.392Z,51.55
2023-02-08T02:53:52.892Z,48.50
2023-02-08T02:54:57.203Z,49.92
2023-02-08T02:56:02.464Z,53.70
2023-02-08T02:57:07.896Z,51.33
2023-02-08T02:58:11.162Z,47.22
2023-02-08T02:59:15.019Z,46.25
2023-02-08T03:00:37.296Z,43.83
2023-02-08T03:01:39.979Z,43.25
2023-02-08T03:02:45.053Z,43.20
2023-02-08T03:03:48.548Z,47.35
2023-02-08T03:04:54.551Z,44.63
2023-02-08T03:06:00.393Z,44.75
2023-02-08T03:07:06.411Z,45.45
2023-02-08T03:08:17.863Z,46.17
2023-02-08T03:09:28.369Z,47.53
2023-02-08T03:10:43.093Z,52.10
2023-02-08T03:11:48.184Z,47.50
2023-02-08T03:12:56.557Z,43.58
2023-02-08T03:14:20.075Z,45.55
2023-02-08T03:15:30.247Z,42.67
2023-02-08T03:16:38.852Z,45.22
2023-02-08T03:17:52.056Z,45.50
2023-02-08T03:19:04.444Z,45.55
2023-02-08T03:20:10.191Z,42.80
2023-02-08T03:21:14.752Z,43.78
2023-02-08T03:22:21.993Z,35.72
2023-02-08T03:23:28.744Z,42.33
2023-02-08T03:24:38.022Z,39.28
2023-02-08T03:25:47.097Z,46.60
2023-02-08T03:26:55.898Z,38.47
2023-02-08T03:28:02.341Z,41.50
2023-02-08T03:29:09.842Z,48.92
2023-02-08T03:30:15.512Z,41.30
2023-02-08T03:31:24.128Z,41.20
2023-02-08T03:32:31.718Z,39.75
2023-02-08T03:33:40.210Z,40.90
2023-02-08T03:34:46.331Z,41.05
2023-02-08T03:35:51.776Z,40.53
2023-02-08T03:36:55.729Z,37.30
2023-02-08T03:38:01.575Z,36.38
2023-02-08T03:39:06.190Z,39.15
2023-02-08T03:40:13.966Z,37.20
2023-02-08T03:41:23.003Z,39.35
2023-02-08T03:42:27.138Z,39.75
2023-02-08T03:43:30.738Z,41.63
2023-02-08T03:44:36.250Z,39.72
2023-02-08T03:45:40.478Z,40.85
2023-02-08T03:46:45.689Z,41.40
2023-02-08T03:47:49.853Z,39.63
2023-02-08T03:48:57.680Z,39.33
2023-02-08T03:50:04.110Z,40.25
2023-02-08T03:51:07.553Z,37.63
2023-02-08T03:52:10.676Z,40.47
2023-02-08T03:53:16.947Z,40.33
2023-02-08T03:54:21.190Z,36.50
2023-02-08T03:55:27.022Z,39.90
2023-02-08T03:56:34.764Z,39.10
2023-02-08T03:57:41.834Z,39.47
2023-02-08T03:58:46.793Z,40.83
2023-02-08T03:59:55.501Z,34.78
2023-02-08T04:01:03.270Z,35.85
2023-02-08T04:02:08.197Z,39.88
2023-02-08T04:03:13.823Z,37.60
2023-02-08T04:04:19.298Z,33.80
2023-02-08T04:05:22.019Z,34.53
2023-02-08T04:06:25.470Z,35.45
2023-02-08T04:07:27.417Z,35.95
2023-02-08T04:08:30.348Z,35.17
2023-02-08T04:09:32.282Z,35.42
2023-02-08T04:10:35.154Z,35.80
2023-02-08T04:11:37.031Z,33.35
2023-02-08T04:12:39.923Z,34.88
2023-02-08T04:13:41.988Z,37.17
2023-02-08T04:14:44.951Z,36.22
2023-02-08T04:15:46.953Z,36.88
2023-02-08T04:16:50.012Z,32.78
2023-02-08T04:17:51.879Z,34.72
2023-02-08T04:18:54.762Z,37.60
2023-02-08T04:19:57.899Z,37.35
2023-02-08T04:21:00.668Z,35.25
2023-02-08T04:22:02.646Z,35.65
2023-02-08T04:23:05.539Z,36.75
2023-02-08T04:24:08.066Z,35.20
2023-02-08T04:25:11.320Z,33.85
2023-02-08T04:26:14.136Z,34.03
2023-02-08T04:27:16.278Z,39.28
2023-02-08T04:28:19.656Z,39.65
2023-02-08T04:29:21.680Z,36.85
2023-02-08T04:30:24.551Z,38.95
2023-02-08T04:31:26.639Z,36.45
2023-02-08T04:32:29.483Z,39.28
2023-02-08T04:33:31.451Z,36.45
2023-02-08T04:34:34.699Z,35.83
2023-02-08T04:35:37.847Z,35.92
2023-02-08T04:36:40.827Z,35.28
2023-02-08T04:37:42.931Z,35.95
2023-02-08T04:38:45.798Z,35.20
2023-02-08T04:39:47.681Z,37.17
2023-02-08T04:40:50.558Z,41.53
2023-02-08T04:41:52.484Z,37.20
2023-02-08T04:42:55.713Z,37.15
2023-02-08T04:43:58.029Z,35.63
2023-02-08T04:45:00.897Z,37.85
2023-02-08T04:46:02.961Z,36.55
2023-02-08T04:47:06.231Z,36.65
2023-02-08T04:48:08.389Z,38.90
2023-02-08T04:49:11.377Z,40.33
2023-02-08T04:50:14.556Z,34.55
2023-02-08T04:51:18.711Z,39.63
2023-02-08T04:52:20.700Z,37.08
2023-02-08T04:53:23.748Z,33.65
2023-02-08T04:54:25.689Z,39.08
2023-02-08T04:55:28.864Z,42.53
2023-02-08T04:56:30.843Z,39.67
2023-02-08T04:57:33.623Z,36.88
2023-02-08T04:58:36.677Z,38.53
2023-02-08T04:59:40.287Z,34.65
2023-02-08T05:00:42.475Z,40.92
2023-02-08T05:01:45.484Z,36.45
2023-02-08T05:02:48.090Z,37.50
2023-02-08T05:03:51.013Z,38.40
2023-02-08T05:04:52.906Z,42.53
2023-02-08T05:05:59.658Z,40.97
2023-02-08T05:07:02.937Z,40.30
2023-02-08T05:08:06.379Z,39.28
2023-02-08T05:09:08.901Z,41.40
2023-02-08T05:10:11.724Z,37.88
2023-02-08T05:11:13.568Z,39.72
2023-02-08T05:12:16.570Z,39.20
2023-02-08T05:13:18.556Z,44.25
2023-02-08T05:14:21.378Z,42.67
2023-02-08T05:15:23.469Z,44.50
2023-02-08T05:16:26.440Z,44.08
2023-02-08T05:17:28.343Z,40.10
2023-02-08T05:18:31.128Z,40.85
2023-02-08T05:19:32.958Z,49.95
2023-02-08T05:20:35.879Z,39.67
2023-02-08T05:21:37.811Z,44.70
2023-02-08T05:22:42.050Z,49.30
2023-02-08T05:23:46.405Z,47.47
2023-02-08T05:24:49.519Z,46.05
2023-02-08T05:25:51.602Z,46.65
2023-02-08T05:26:54.442Z,45.55
2023-02-08T05:28:14.805Z,50.65
2023-02-08T05:29:17.649Z,46.50
2023-02-08T05:30:19.798Z,49.08
2023-02-08T05:31:25.042Z,43.30
2023-02-08T05:32:27.670Z,45.80
2023-02-08T05:33:30.465Z,43.35
2023-02-08T05:34:33.314Z,50.25
2023-02-08T05:35:35.250Z,47.83
2023-02-08T05:36:38.056Z,46.95
2023-02-08T05:37:41.216Z,45.58
2023-02-08T05:38:44.144Z,44.97
2023-02-08T05:39:45.956Z,45.92
2023-02-08T05:40:48.746Z,46.58
2023-02-08T05:41:50.664Z,49.67
2023-02-08T05:42:53.498Z,43.08
2023-02-08T05:43:56.277Z,48.80
2023-02-08T05:44:58.254Z,43.83
2023-02-08T05:46:01.068Z,46.38
2023-02-08T05:47:03.986Z,51.13
2023-02-08T05:48:07.081Z,46.40
2023-02-08T05:49:08.867Z,50.28
2023-02-08T05:50:11.638Z,51.83
2023-02-08T05:51:13.696Z,47.90
2023-02-08T05:52:16.482Z,48.58
2023-02-08T05:53:19.778Z,49.70
2023-02-08T05:54:23.375Z,45.60
2023-02-08T05:55:27.145Z,49.85
2023-02-08T05:56:30.075Z,49.72
2023-02-08T05:57:35.460Z,52.13
2023-02-08T05:58:38.535Z,53.22
2023-02-08T05:59:40.354Z,45.70
2023-02-08T06:00:43.362Z,48.42
2023-02-08T06:01:46.450Z,48.42
2023-02-08T06:02:49.205Z,47.42
2023-02-08T06:03:52.560Z,47.90
2023-02-08T06:04:55.680Z,48.35
2023-02-08T06:06:00.741Z,45.88
2023-02-08T06:07:04.073Z,46.85
2023-02-08T06:08:06.170Z,49.72
2023-02-08T06:09:10.517Z,49.45
2023-02-08T06:10:13.372Z,51.85
2023-02-08T06:11:15.250Z,52.55
2023-02-08T06:12:18.069Z,49.05
2023-02-08T06:13:21.287Z,51.50
2023-02-08T06:14:24.055Z,52.78
2023-02-08T06:15:25.993Z,50.22
2023-02-08T06:16:28.898Z,53.53
2023-02-08T06:17:30.907Z,50.90
2023-02-08T06:18:33.792Z,53.33
2023-02-08T06:19:36.252Z,46.85
2023-02-08T06:20:39.749Z,56.08
2023-02-08T06:21:43.202Z,50.70
2023-02-08T06:22:45.776Z,57.20
2023-02-08T06:23:48.705Z,53.63
2023-02-08T06:24:51.898Z,54.35
2023-02-08T06:25:54.880Z,58.60
2023-02-08T06:26:56.880Z,61.55
2023-02-08T06:28:00.288Z,53.50
2023-02-08T06:29:02.675Z,54.40
2023-02-08T06:30:05.986Z,54.50
2023-02-08T06:31:07.774Z,50.30
2023-02-08T06:32:11.337Z,48.42
2023-02-08T06:33:15.690Z,55.58
2023-02-08T06:34:18.596Z,54.88
2023-02-08T06:35:21.561Z,51.83
2023-02-08T06:36:24.361Z,60.65
2023-02-08T06:37:26.177Z,58.55
2023-02-08T06:38:29.144Z,65.90
2023-02-08T06:39:31.080Z,63.90
2023-02-08T06:40:35.232Z,66.93
2023-02-08T06:41:37.455Z,60.90
2023-02-08T06:42:40.335Z,59.92
2023-02-08T06:43:42.341Z,58.60
2023-02-08T06:45:04.203Z,58.80
2023-02-08T06:46:08.550Z,58.85
2023-02-08T06:47:11.658Z,60.92
2023-02-08T06:48:13.627Z,60.95
2023-02-08T06:49:17.181Z,61.47
2023-02-08T06:50:20.680Z,61.60
2023-02-08T06:51:23.556Z,61.50
2023-02-08T06:52:26.466Z,61.30
2023-02-08T06:53:28.297Z,58.55
2023-02-08T06:54:31.128Z,63.17
2023-02-08T06:55:35.502Z,61.42
2023-02-08T06:56:38.361Z,61.97
2023-02-08T06:57:40.242Z,58.13
2023-02-08T06:58:43.155Z,65.10
2023-02-08T06:59:45.618Z,65.40
2023-02-08T07:00:48.475Z,60.42
2023-02-08T07:01:51.441Z,62.90
2023-02-08T07:02:53.284Z,70.65
2023-02-08T07:03:56.162Z,64.43
2023-02-08T07:04:59.095Z,69.20
2023-02-08T07:06:05.520Z,62.38
2023-02-08T07:07:09.081Z,62.85
2023-02-08T07:08:11.966Z,58.17
2023-02-08T07:09:14.894Z,58.30
2023-02-08T07:10:17.914Z,60.80
2023-02-08T07:11:22.701Z,61.45
2023-02-08T07:12:24.503Z,60.45
2023-02-08T07:13:27.490Z,60.22
2023-02-08T07:14:30.732Z,51.45
2023-02-08T07:15:35.437Z,51.63
2023-02-08T07:16:37.360Z,48.85
2023-02-08T07:17:40.800Z,47.58
2023-02-08T07:18:42.635Z,44.30
2023-02-08T07:19:45.464Z,48.33
2023-02-08T07:20:48.950Z,41.17
2023-02-08T07:21:51.961Z,37.80
2023-02-08T07:22:53.869Z,40.28
2023-02-08T07:23:56.848Z,39.28
2023-02-08T07:24:59.683Z,37.50
2023-02-08T07:26:04.583Z,39.47
2023-02-08T07:27:11.379Z,36.53
2023-02-08T07:28:14.313Z,38.53
2023-02-08T07:29:17.174Z,36.13
2023-02-08T07:30:20.268Z,35.35
2023-02-08T07:31:22.147Z,30.15
2023-02-08T07:32:25.283Z,31.80
2023-02-08T07:33:27.210Z,33.95
2023-02-08T07:34:31.390Z,32.65
2023-02-08T07:35:34.260Z,29.17
2023-02-08T07:36:36.274Z,30.88
2023-02-08T07:37:39.120Z,32.40
2023-02-08T07:38:41.894Z,25.40
2023-02-08T07:39:44.949Z,27.80
2023-02-08T07:40:46.812Z,31.45
2023-02-08T07:41:49.735Z,31.98
2023-02-08T07:42:54.237Z,24.30
2023-02-08T07:44:07.294Z,30.02
2023-02-08T07:45:10.505Z,23.38
2023-02-08T07:46:15.010Z,18.30
2023-02-08T07:47:18.237Z,19.65
2023-02-08T07:48:20.031Z,22.30
2023-02-08T07:49:23.278Z,21.52
2023-02-08T07:50:26.052Z,21.30
2023-02-08T07:51:28.869Z,21.63
2023-02-08T07:52:31.924Z,22.20
2023-02-08T07:53:34.900Z,17.65
2023-02-08T07:54:37.738Z,20.58
2023-02-08T07:55:40.643Z,17.50
2023-02-08T07:56:43.357Z,17.77
2023-02-08T07:57:47.422Z,18.27
2023-02-08T07:58:52.132Z,21.98
2023-02-08T07:59:54.303Z,19.38
2023-02-08T08:00:57.167Z,20.25
2023-02-08T08:01:59.486Z,17.40
2023-02-08T08:03:02.380Z,19.10
2023-02-08T08:04:05.693Z,20.13
2023-02-08T08:05:08.174Z,18.40
2023-02-08T08:06:10.986Z,19.90
2023-02-08T08:07:13.734Z,17.95
2023-02-08T08:08:16.613Z,18.23
2023-02-08T08:09:20.347Z,18.67
2023-02-08T08:10:23.133Z,16.52
2023-02-08T08:11:28.642Z,14.77
2023-02-08T08:12:30.432Z,16.10
2023-02-08T08:13:33.357Z,13.02
2023-02-08T08:14:37.564Z,22.42
2023-02-08T08:15:40.581Z,14.35
2023-02-08T08:16:43.760Z,11.93
2023-02-08T08:17:45.660Z,11.57
2023-02-08T08:18:48.863Z,10.45
2023-02-08T08:19:51.613Z,8.02
2023-02-08T08:20:54.466Z,9.10
2023-02-08T08:21:57.202Z,10.15
2023-02-08T08:23:00.001Z,9.68
2023-02-08T08:24:02.210Z,8.57
2023-02-08T08:25:05.332Z,9.10
2023-02-08T08:26:09.475Z,8.73
2023-02-08T08:27:31.548Z,12.50
2023-02-08T08:28:34.701Z,11.50
2023-02-08T08:29:39.307Z,11.20
2023-02-08T08:30:44.445Z,9.50
2023-02-08T08:31:47.338Z,9.50
2023-02-08T08:32:49.243Z,9.68
2023-02-08T08:33:52.374Z,8.77
2023-02-08T08:34:55.177Z,11.27
2023-02-08T08:35:56.923Z,10.93
2023-02-08T08:37:00.698Z,13.38
2023-02-08T08:38:02.448Z,10.43
2023-02-08T08:39:05.276Z,9.90
2023-02-08T08:40:26.598Z,10.75
2023-02-08T08:41:29.800Z,9.13
2023-02-08T08:42:32.566Z,11.90
2023-02-08T08:43:34.384Z,10.07
2023-02-08T08:44:39.410Z,10.38
2023-02-08T08:45:42.199Z,12.85
2023-02-08T08:46:44.932Z,11.80
2023-02-08T08:47:47.759Z,10.90
2023-02-08T08:48:51.673Z,8.40
2023-02-08T08:49:54.405Z,9.20
2023-02-08T08:50:57.306Z,10.38
2023-02-08T08:52:00.070Z,10.70
2023-02-08T08:53:02.894Z,10.15
2023-02-08T08:54:06.271Z,12.93
2023-02-08T08:55:08.664Z,9.30
2023-02-08T08:56:11.502Z,10.30
2023-02-08T08:57:13.763Z,9.40
2023-02-08T08:58:16.507Z,7.63
2023-02-08T08:59:19.267Z,10.20
2023-02-08T09:00:23.838Z,10.95
2023-02-08T09:01:25.678Z,11.90
2023-02-08T09:02:28.470Z,9.68
2023-02-08T09:03:31.251Z,13.55
2023-02-08T09:04:34.296Z,10.95
2023-02-08T09:05:37.061Z,9.85
2023-02-08T09:06:39.900Z,9.63
2023-02-08T09:07:41.858Z,8.40
2023-02-08T09:08:45.047Z,8.68
2023-02-08T09:09:48.628Z,12.40
2023-02-08T09:10:51.409Z,11.75
2023-02-08T09:11:54.593Z,13.05
2023-02-08T09:12:57.897Z,9.02
2023-02-08T09:14:03.171Z,13.55
2023-02-08T09:15:07.714Z,10.23
2023-02-08T09:16:13.500Z,11.45
2023-02-08T09:17:16.529Z,8.15
2023-02-08T09:18:18.343Z,12.05
2023-02-08T09:19:21.256Z,13.13
2023-02-08T09:20:23.974Z,12.60
2023-02-08T09:21:26.839Z,12.82
2023-02-08T09:22:30.146Z,10.00
2023-02-08T09:23:32.890Z,9.82
2023-02-08T09:24:36.007Z,9.93
2023-02-08T09:25:37.989Z,11.57
2023-02-08T09:26:40.797Z,10.90
2023-02-08T09:27:43.798Z,10.85
2023-02-08T09:28:47.119Z,12.73
2023-02-08T09:29:49.898Z,11.93
2023-02-08T09:30:52.673Z,11.13
2023-02-08T09:31:57.443Z,10.45
2023-02-08T09:33:00.442Z,11.13
2023-02-08T09:34:03.431Z,10.27
2023-02-08T09:35:07.383Z,9.95
2023-02-08T09:36:10.852Z,13.07
2023-02-08T09:37:14.249Z,12.45
2023-02-08T09:38:17.513Z,8.75
2023-02-08T09:39:22.020Z,14.57
2023-02-08T09:40:26.929Z,14.05
2023-02-08T09:41:42.628Z,12.73
2023-02-08T09:42:51.237Z,12.90
2023-02-08T09:44:01.447Z,11.75
2023-02-08T09:45:30.865Z,12.70
2023-02-08T09:46:35.555Z,14.32
2023-02-08T09:47:43.302Z,11.75
2023-02-08T09:48:46.256Z,12.52
2023-02-08T09:49:58.292Z,12.00
2023-02-08T09:51:05.594Z,12.45
2023-02-08T09:52:12.014Z,10.57
2023-02-08T09:53:16.863Z,7.65
2023-02-08T09:54:22.672Z,10.77
2023-02-08T09:55:30.580Z,10.07
2023-02-08T09:56:36.266Z,9.93
2023-02-08T09:57:39.730Z,10.75
2023-02-08T09:58:44.517Z,13.15
2023-02-08T09:59:52.729Z,12.45
2023-02-08T10:00:56.631Z,10.55
2023-02-08T10:02:02.385Z,15.90
2023-02-08T10:03:06.073Z,11.73
2023-02-08T10:04:14.750Z,12.73
2023-02-08T10:05:22.416Z,13.40
2023-02-08T10:06:25.536Z,14.73
2023-02-08T10:07:47.637Z,14.27
2023-02-08T10:08:51.654Z,12.38
2023-02-08T10:09:54.234Z,14.73
2023-02-08T10:11:03.316Z,12.93
2023-02-08T10:12:15.001Z,13.18
2023-02-08T10:13:41.798Z,18.33
2023-02-08T10:14:53.356Z,16.92
2023-02-08T10:16:03.629Z,24.25
2023-02-08T10:17:20.842Z,17.10
2023-02-08T10:18:44.789Z,17.40
2023-02-08T10:19:57.273Z,15.80
2023-02-08T10:21:22.802Z,17.20
2023-02-08T10:22:32.567Z,16.98
2023-02-08T10:23:45.325Z,9.82
2023-02-08T10:24:59.598Z,8.60
2023-02-08T10:26:15.636Z,12.93
2023-02-08T10:27:22.326Z,11.02
2023-02-08T10:28:33.781Z,10.00
2023-02-08T10:29:47.391Z,10.95
2023-02-08T10:30:55.302Z,9.88
2023-02-08T10:32:07.442Z,14.25
2023-02-08T10:33:16.735Z,11.50
2023-02-08T10:34:31.392Z,11.10
2023-02-08T10:35:38.167Z,10.85
2023-02-08T10:36:42.013Z,12.70
2023-02-08T10:37:48.741Z,12.85
2023-02-08T10:38:53.641Z,14.60
2023-02-08T10:39:57.437Z,12.15
2023-02-08T10:41:01.930Z,12.20
2023-02-08T10:42:05.813Z,11.25
2023-02-08T10:43:17.221Z,13.52
2023-02-08T10:44:28.376Z,12.73
2023-02-08T10:45:32.906Z,13.05
2023-02-08T10:46:39.124Z,11.65
2023-02-08T10:47:44.548Z,14.68
2023-02-08T10:48:54.769Z,10.27
2023-02-08T10:50:03.718Z,12.27
2023-02-08T10:51:13.325Z,12.35
2023-02-08T10:52:16.240Z,12.90
2023-02-08T10:53:20.508Z,16.25
2023-02-08T10:54:23.461Z,14.52
2023-02-08T10:55:27.879Z,11.55
2023-02-08T10:56:46.974Z,11.07
2023-02-08T10:57:52.555Z,9.32
2023-02-08T10:58:55.591Z,12.55
2023-02-08T11:00:01.967Z,10.18
2023-02-08T11:01:07.893Z,12.90
2023-02-08T11:02:21.724Z,11.50
2023-02-08T11:03:26.054Z,14.18
2023-02-08T11:04:29.122Z,12.73
2023-02-08T11:05:37.790Z,13.57
2023-02-08T11:06:42.478Z,13.40
2023-02-08T11:07:46.402Z,9.85
2023-02-08T11:09:21.496Z,15.30
2023-02-08T11:10:47.229Z,11.10
2023-02-08T11:12:20.234Z,14.80
2023-02-08T11:13:45.109Z,12.02
2023-02-08T11:15:22.527Z,13.43
2023-02-08T11:16:39.772Z,13.15
2023-02-08T11:17:59.590Z,14.25
2023-02-08T11:19:07.892Z,12.45
2023-02-08T11:20:27.890Z,13.65
2023-02-08T11:21:34.992Z,14.38
2023-02-08T11:22:37.865Z,11.68
2023-02-08T11:23:42.729Z,12.70
2023-02-08T11:24:57.029Z,10.73
2023-02-08T11:26:18.477Z,11.40
2023-02-08T11:27:32.799Z,13.32
2023-02-08T11:28:35.943Z,11.30
2023-02-08T11:29:38.802Z,12.13
2023-02-08T11:30:42.118Z,13.68
2023-02-08T11:32:05.243Z,10.48
2023-02-08T11:33:19.771Z,12.13
2023-02-08T11:34:25.842Z,11.88
2023-02-08T11:35:30.039Z,12.30
2023-02-08T11:36:35.909Z,11.32
2023-02-08T11:37:38.938Z,12.50
2023-02-08T11:38:43.999Z,12.48
2023-02-08T11:39:51.640Z,12.65
2023-02-08T11:40:55.219Z,12.95
2023-02-08T11:42:00.673Z,11.40
2023-02-08T11:43:03.246Z,12.63
2023-02-08T11:44:07.948Z,11.30
2023-02-08T11:45:20.559Z,13.82
2023-02-08T11:46:23.617Z,12.13
2023-02-08T11:47:34.227Z,13.52
2023-02-08T11:48:41.209Z,13.65
2023-02-08T11:49:45.357Z,11.65
2023-02-08T11:50:54.130Z,12.77
2023-02-08T11:51:58.264Z,12.68
2023-02-08T11:53:02.778Z,15.02
2023-02-08T11:54:07.815Z,12.20
2023-02-08T11:55:15.466Z,13.75
2023-02-08T11:56:19.823Z,15.73
2023-02-08T11:57:24.059Z,14.77
2023-02-08T11:58:26.256Z,12.23
2023-02-08T11:59:29.946Z,14.27
2023-02-08T12:00:35.189Z,13.50
2023-02-08T12:01:39.175Z,13.07
2023-02-08T12:02:46.325Z,16.48
2023-02-08T12:03:50.588Z,13.50
2023-02-08T12:04:53.757Z,12.20
2023-02-08T12:06:17.244Z,13.77
2023-02-08T12:07:24.849Z,15.63
2023-02-08T12:08:30.269Z,13.50
2023-02-08T12:10:06.157Z,13.93
2023-02-08T12:11:16.520Z,13.80
2023-02-08T12:12:25.188Z,13.52
2023-02-08T12:13:42.928Z,13.48
2023-02-08T12:14:58.896Z,13.32
2023-02-08T12:16:07.935Z,14.20
2023-02-08T12:17:25.792Z,15.35
2023-02-08T12:18:45.313Z,11.55
2023-02-08T12:20:18.194Z,12.88
2023-02-08T12:21:23.734Z,15.63
2023-02-08T12:22:28.000Z,13.80
2023-02-08T12:23:45.995Z,15.98
2023-02-08T12:25:23.551Z,13.13
2023-02-08T12:26:36.066Z,16.90
2023-02-08T12:27:43.734Z,18.40
2023-02-08T12:29:14.748Z,16.45
2023-02-08T12:30:23.818Z,13.77
2023-02-08T12:31:33.201Z,18.60
2023-02-08T12:32:44.961Z,14.98
2023-02-08T12:33:56.199Z,12.35
2023-02-08T12:35:08.877Z,14.70
2023-02-08T12:36:22.850Z,12.40
2023-02-08T12:37:53.425Z,11.00
2023-02-08T12:39:26.268Z,15.55
2023-02-08T12:40:50.976Z,15.90
2023-02-08T12:42:05.401Z,16.60
2023-02-08T12:43:14.877Z,13.27
2023-02-08T12:44:30.103Z,20.73
2023-02-08T12:45:45.124Z,15.15
2023-02-08T12:46:52.564Z,13.73
2023-02-08T12:48:04.965Z,13.30
2023-02-08T12:49:44.336Z,13.60
2023-02-08T12:50:49.724Z,14.43
2023-02-08T12:51:57.602Z,13.40
2023-02-08T12:53:04.566Z,14.85
2023-02-08T12:54:11.612Z,14.35
2023-02-08T12:55:18.908Z,14.55
2023-02-08T12:56:24.453Z,15.40
2023-02-08T12:57:30.158Z,14.60
2023-02-08T12:58:36.718Z,13.05
2023-02-08T12:59:41.725Z,15.63
2023-02-08T13:04:07.473Z,13.75
2023-02-08T13:05:16.598Z,13.65
2023-02-08T13:06:22.688Z,14.98
2023-02-08T13:07:29.104Z,16.40
2023-02-08T13:08:35.917Z,12.27
2023-02-08T13:09:42.353Z,22.20
2023-02-08T13:10:48.293Z,17.90
2023-02-08T13:11:54.078Z,17.30
2023-02-08T13:12:58.949Z,15.85
2023-02-08T13:14:04.510Z,16.88
2023-02-08T13:15:24.790Z,16.80
2023-02-08T13:16:36.578Z,13.38
2023-02-08T13:17:45.682Z,13.85
2023-02-08T13:18:53.982Z,13.05
2023-02-08T13:20:00.963Z,12.82
2023-02-08T13:21:05.870Z,15.50
2023-02-08T13:22:08.646Z,13.63
2023-02-08T13:23:17.407Z,12.90
2023-02-08T13:24:27.754Z,12.52
2023-02-08T13:25:32.921Z,13.32
2023-02-08T13:26:36.039Z,13.07
2023-02-08T13:27:39.128Z,12.85
2023-02-08T13:28:47.553Z,12.68
2023-02-08T13:29:52.316Z,13.27
2023-02-08T13:30:56.923Z,14.55
2023-02-08T13:32:02.291Z,11.98
2023-02-08T13:33:13.202Z,15.77
2023-02-08T13:34:21.199Z,17.58
2023-02-08T13:35:27.851Z,13.30
2023-02-08T13:36:31.521Z,16.00
2023-02-08T13:37:35.717Z,14.85
2023-02-08T13:38:40.275Z,14.10
2023-02-08T13:39:46.292Z,14.00
2023-02-08T13:40:49.343Z,13.82
2023-02-08T13:41:53.564Z,14.75
2023-02-08T13:42:59.388Z,13.48
2023-02-08T13:44:05.192Z,13.43
2023-02-08T13:45:09.194Z,15.95
2023-02-08T13:46:12.628Z,14.05
2023-02-08T13:47:37.969Z,15.60
2023-02-08T13:48:46.251Z,17.25
2023-02-08T13:49:57.420Z,14.23
2023-02-08T13:51:00.885Z,16.45
2023-02-08T13:52:02.802Z,13.25
2023-02-08T13:53:06.088Z,16.33
2023-02-08T13:54:13.007Z,13.82
2023-02-08T13:56:05.834Z,16.98
2023-02-08T13:57:38.410Z,15.63
2023-02-08T13:59:06.886Z,14.63
2023-02-08T14:00:23.682Z,15.52
2023-02-08T14:01:27.724Z,16.23
2023-02-08T14:02:31.253Z,17.45
2023-02-08T14:04:32.782Z,15.38
2023-02-08T14:05:45.635Z,14.45
2023-02-08T14:06:51.070Z,15.77
2023-02-08T14:07:57.452Z,14.73
2023-02-08T14:09:07.177Z,15.40
2023-02-08T14:10:27.741Z,14.13
2023-02-08T14:11:42.456Z,15.40
2023-02-08T14:12:47.613Z,18.42
2023-02-08T14:13:55.366Z,18.25
2023-02-08T14:15:30.679Z,18.55
2023-02-08T14:16:34.240Z,17.85
2023-02-08T14:17:36.349Z,15.25